sensor_id;sensor_type;location;lat;lon;timestamp;pressure;altitude;pressure_sealevel;temperature;humidity
70982;BME280;58640;51.320;9.456;2023-03-31T00:01:28;98377.69;;;9.37;90.61
70982;BME280;58640;51.320;9.456;2023-03-31T00:03:54;98370.50;;;9.38;90.87
70982;BME280;58640;51.320;9.456;2023-03-31T00:06:26;98367.56;;;9.33;91.38
70982;BME280;58640;51.320;9.456;2023-03-31T00:08:52;98361.84;;;9.42;90.85
70982;BME280;58640;51.320;9.456;2023-03-31T00:11:18;98361.00;;;9.42;90.81
70982;BME280;58640;51.320;9.456;2023-03-31T00:13:44;98363.69;;;9.42;90.57
70982;BME280;58640;51.320;9.456;2023-03-31T00:16:09;98351.56;;;9.46;90.62
70982;BME280;58640;51.320;9.456;2023-03-31T00:18:35;98345.34;;;9.45;90.59
70982;BME280;58640;51.320;9.456;2023-03-31T00:21:09;98343.50;;;9.46;90.46
70982;BME280;58640;51.320;9.456;2023-03-31T00:23:39;98337.06;;;9.40;90.73
70982;BME280;58640;51.320;9.456;2023-03-31T00:26:05;98323.25;;;9.43;91.07
70982;BME280;58640;51.320;9.456;2023-03-31T00:28:31;98317.06;;;9.43;90.89
70982;BME280;58640;51.320;9.456;2023-03-31T00:30:59;98312.13;;;9.46;90.88
70982;BME280;58640;51.320;9.456;2023-03-31T00:33:25;98313.41;;;9.50;90.96
70982;BME280;58640;51.320;9.456;2023-03-31T00:35:51;98319.81;;;9.49;91.04
70982;BME280;58640;51.320;9.456;2023-03-31T00:38:16;98306.75;;;9.46;91.21
70982;BME280;58640;51.320;9.456;2023-03-31T00:40:45;98307.34;;;9.42;91.44
70982;BME280;58640;51.320;9.456;2023-03-31T00:45:49;98315.94;;;9.31;92.37
70982;BME280;58640;51.320;9.456;2023-03-31T00:48:17;98310.22;;;9.40;91.99
70982;BME280;58640;51.320;9.456;2023-03-31T00:50:48;98299.03;;;9.30;92.28
70982;BME280;58640;51.320;9.456;2023-03-31T00:53:16;98300.97;;;9.43;91.69
70982;BME280;58640;51.320;9.456;2023-03-31T00:55:50;98291.84;;;9.37;91.86
70982;BME280;58640;51.320;9.456;2023-03-31T00:58:17;98291.22;;;9.42;92.00
70982;BME280;58640;51.320;9.456;2023-03-31T01:00:47;98293.53;;;9.45;91.42
70982;BME280;58640;51.320;9.456;2023-03-31T01:03:13;98292.97;;;9.49;91.17
70982;BME280;58640;51.320;9.456;2023-03-31T01:05:52;98290.84;;;9.45;91.51
70982;BME280;58640;51.320;9.456;2023-03-31T01:08:20;98262.59;;;9.49;90.95
70982;BME280;58640;51.320;9.456;2023-03-31T01:10:52;98262.53;;;9.70;90.14
70982;BME280;58640;51.320;9.456;2023-03-31T01:13:19;98271.34;;;9.64;90.14
70982;BME280;58640;51.320;9.456;2023-03-31T01:15:45;98273.81;;;9.59;90.22
70982;BME280;58640;51.320;9.456;2023-03-31T01:18:12;98264.72;;;9.60;90.45
70982;BME280;58640;51.320;9.456;2023-03-31T01:29:11;98261.47;;;9.30;92.12
70982;BME280;58640;51.320;9.456;2023-03-31T01:42:51;98233.44;;;9.12;94.10
70982;BME280;58640;51.320;9.456;2023-03-31T01:48:17;98222.75;;;9.18;93.73
70982;BME280;58640;51.320;9.456;2023-03-31T01:50:47;98220.22;;;9.10;94.49
70982;BME280;58640;51.320;9.456;2023-03-31T01:56:34;98202.75;;;9.21;93.83
70982;BME280;58640;51.320;9.456;2023-03-31T01:59:22;98196.78;;;9.19;93.96
70982;BME280;58640;51.320;9.456;2023-03-31T02:02:42;98196.09;;;9.44;92.09
70982;BME280;58640;51.320;9.456;2023-03-31T02:05:12;98183.19;;;9.27;92.94
70982;BME280;58640;51.320;9.456;2023-03-31T02:07:48;98180.03;;;9.17;93.85
70982;BME280;58640;51.320;9.456;2023-03-31T02:10:18;98174.66;;;9.17;93.30
70982;BME280;58640;51.320;9.456;2023-03-31T02:12:45;98173.47;;;9.26;92.99
70982;BME280;58640;51.320;9.456;2023-03-31T02:15:14;98173.63;;;9.18;93.35
70982;BME280;58640;51.320;9.456;2023-03-31T02:17:45;98164.38;;;9.20;93.28
70982;BME280;58640;51.320;9.456;2023-03-31T02:20:14;98154.59;;;9.06;94.39
70982;BME280;58640;51.320;9.456;2023-03-31T02:22:45;98157.75;;;9.16;93.90
70982;BME280;58640;51.320;9.456;2023-03-31T02:25:15;98150.72;;;9.15;94.03
70982;BME280;58640;51.320;9.456;2023-03-31T02:27:47;98155.50;;;9.20;93.82
70982;BME280;58640;51.320;9.456;2023-03-31T02:30:14;98146.25;;;9.29;92.99
70982;BME280;58640;51.320;9.456;2023-03-31T02:32:41;98150.84;;;9.35;92.55
70982;BME280;58640;51.320;9.456;2023-03-31T02:35:11;98143.34;;;9.24;93.48
70982;BME280;58640;51.320;9.456;2023-03-31T02:37:38;98141.81;;;9.49;92.04
70982;BME280;58640;51.320;9.456;2023-03-31T02:40:07;98134.56;;;9.43;91.78
70982;BME280;58640;51.320;9.456;2023-03-31T02:42:35;98133.53;;;9.44;92.21
70982;BME280;58640;51.320;9.456;2023-03-31T02:45:03;98127.41;;;9.63;90.97
70982;BME280;58640;51.320;9.456;2023-03-31T02:47:28;98124.09;;;9.61;90.72
70982;BME280;58640;51.320;9.456;2023-03-31T02:49:56;98120.13;;;9.50;91.58
70982;BME280;58640;51.320;9.456;2023-03-31T02:52:55;98120.53;;;9.47;91.73
70982;BME280;58640;51.320;9.456;2023-03-31T02:58:20;98111.31;;;9.63;91.04
70982;BME280;58640;51.320;9.456;2023-03-31T03:06:41;98101.53;;;9.42;92.91
70982;BME280;58640;51.320;9.456;2023-03-31T03:09:26;98087.97;;;9.57;92.21
70982;BME280;58640;51.320;9.456;2023-03-31T03:14:37;98088.56;;;9.52;93.89
70982;BME280;58640;51.320;9.456;2023-03-31T03:17:34;98083.59;;;9.56;93.99
70982;BME280;58640;51.320;9.456;2023-03-31T03:20:01;98086.47;;;9.54;94.23
70982;BME280;58640;51.320;9.456;2023-03-31T03:22:32;98086.06;;;9.44;95.25
70982;BME280;58640;51.320;9.456;2023-03-31T03:24:57;98067.06;;;9.46;94.88
70982;BME280;58640;51.320;9.456;2023-03-31T03:27:23;98062.97;;;9.63;93.67
70982;BME280;58640;51.320;9.456;2023-03-31T03:29:48;98072.00;;;9.42;95.72
70982;BME280;58640;51.320;9.456;2023-03-31T03:32:13;98061.84;;;9.31;96.11
70982;BME280;58640;51.320;9.456;2023-03-31T03:34:39;98056.50;;;9.31;96.57
70982;BME280;58640;51.320;9.456;2023-03-31T03:37:04;98063.06;;;9.22;97.52
70982;BME280;58640;51.320;9.456;2023-03-31T03:39:30;98055.88;;;9.36;96.43
70982;BME280;58640;51.320;9.456;2023-03-31T03:41:55;98049.91;;;9.40;96.83
70982;BME280;58640;51.320;9.456;2023-03-31T03:44:20;98036.25;;;9.29;98.62
70982;BME280;58640;51.320;9.456;2023-03-31T03:46:46;98029.69;;;9.44;97.49
70982;BME280;58640;51.320;9.456;2023-03-31T03:49:11;98023.91;;;9.41;98.12
70982;BME280;58640;51.320;9.456;2023-03-31T03:51:36;98019.50;;;9.14;100.00
70982;BME280;58640;51.320;9.456;2023-03-31T03:54:02;98009.84;;;9.32;99.68
70982;BME280;58640;51.320;9.456;2023-03-31T03:56:27;98011.69;;;9.25;100.00
70982;BME280;58640;51.320;9.456;2023-03-31T03:58:53;97985.25;;;9.29;100.00
70982;BME280;58640;51.320;9.456;2023-03-31T04:01:18;97981.56;;;9.30;100.00
70982;BME280;58640;51.320;9.456;2023-03-31T04:03:44;97989.22;;;9.33;100.00
70982;BME280;58640;51.320;9.456;2023-03-31T04:06:09;97985.28;;;9.35;100.00
70982;BME280;58640;51.320;9.456;2023-03-31T04:08:35;97979.31;;;9.33;100.00
70982;BME280;58640;51.320;9.456;2023-03-31T04:11:01;97964.00;;;9.27;100.00
70982;BME280;58640;51.320;9.456;2023-03-31T04:13:26;97951.84;;;9.25;100.00
70982;BME280;58640;51.320;9.456;2023-03-31T04:15:52;97953.47;;;9.19;100.00
70982;BME280;58640;51.320;9.456;2023-03-31T04:18:17;97944.59;;;9.19;100.00
70982;BME280;58640;51.320;9.456;2023-03-31T04:20:51;97931.81;;;9.14;100.00
70982;BME280;58640;51.320;9.456;2023-03-31T04:23:33;97932.44;;;9.23;100.00
70982;BME280;58640;51.320;9.456;2023-03-31T04:25:59;97939.88;;;9.34;100.00
70982;BME280;58640;51.320;9.456;2023-03-31T04:28:25;97922.34;;;9.31;100.00
70982;BME280;58640;51.320;9.456;2023-03-31T04:30:52;97928.13;;;9.28;100.00
70982;BME280;58640;51.320;9.456;2023-03-31T04:33:19;97925.84;;;9.32;100.00
70982;BME280;58640;51.320;9.456;2023-03-31T04:35:45;97925.44;;;9.35;100.00
70982;BME280;58640;51.320;9.456;2023-03-31T04:38:15;97921.50;;;9.31;100.00
70982;BME280;58640;51.320;9.456;2023-03-31T04:40:46;97917.59;;;9.46;100.00
70982;BME280;58640;51.320;9.456;2023-03-31T04:43:13;97924.41;;;9.49;100.00
70982;BME280;58640;51.320;9.456;2023-03-31T04:45:38;97920.28;;;9.46;100.00
70982;BME280;58640;51.320;9.456;2023-03-31T04:48:04;97933.72;;;9.40;100.00
70982;BME280;58640;51.320;9.456;2023-03-31T04:50:29;97933.72;;;9.40;100.00
70982;BME280;58640;51.320;9.456;2023-03-31T04:52:55;97941.75;;;9.46;100.00
70982;BME280;58640;51.320;9.456;2023-03-31T04:55:20;97929.97;;;9.41;100.00
70982;BME280;58640;51.320;9.456;2023-03-31T04:57:46;97920.69;;;9.43;100.00
70982;BME280;58640;51.320;9.456;2023-03-31T05:00:12;97909.75;;;9.45;100.00
70982;BME280;58640;51.320;9.456;2023-03-31T05:02:37;97895.09;;;9.47;100.00
70982;BME280;58640;51.320;9.456;2023-03-31T05:05:03;97882.50;;;9.74;100.00
70982;BME280;58640;51.320;9.456;2023-03-31T05:07:28;97871.75;;;9.67;100.00
70982;BME280;58640;51.320;9.456;2023-03-31T05:09:54;97870.31;;;9.58;100.00
70982;BME280;58640;51.320;9.456;2023-03-31T05:12:19;97873.44;;;9.62;100.00
70982;BME280;58640;51.320;9.456;2023-03-31T05:14:44;97861.63;;;9.69;100.00
70982;BME280;58640;51.320;9.456;2023-03-31T05:17:10;97852.34;;;9.72;99.67
70982;BME280;58640;51.320;9.456;2023-03-31T05:19:35;97846.53;;;9.81;99.30
70982;BME280;58640;51.320;9.456;2023-03-31T05:22:01;97834.59;;;9.71;99.47
70982;BME280;58640;51.320;9.456;2023-03-31T05:24:26;97833.53;;;9.72;99.49
70982;BME280;58640;51.320;9.456;2023-03-31T05:26:54;97839.31;;;9.88;98.44
70982;BME280;58640;51.320;9.456;2023-03-31T05:29:22;97845.94;;;9.73;99.01
70982;BME280;58640;51.320;9.456;2023-03-31T05:31:47;97846.75;;;9.73;99.35
70982;BME280;58640;51.320;9.456;2023-03-31T05:34:13;97848.22;;;9.63;99.95
70982;BME280;58640;51.320;9.456;2023-03-31T05:36:39;97839.72;;;9.85;98.44
70982;BME280;58640;51.320;9.456;2023-03-31T05:39:04;97840.78;;;9.78;98.10
70982;BME280;58640;51.320;9.456;2023-03-31T05:41:30;97843.47;;;9.78;98.63
70982;BME280;58640;51.320;9.456;2023-03-31T05:43:56;97849.00;;;9.83;97.68
70982;BME280;58640;51.320;9.456;2023-03-31T05:46:21;97841.78;;;9.83;97.89
70982;BME280;58640;51.320;9.456;2023-03-31T05:48:46;97838.09;;;9.78;98.60
70982;BME280;58640;51.320;9.456;2023-03-31T05:51:12;97822.56;;;9.80;99.06
70982;BME280;58640;51.320;9.456;2023-03-31T05:53:37;97807.53;;;9.72;99.83
70982;BME280;58640;51.320;9.456;2023-03-31T05:56:04;97816.81;;;9.76;99.80
70982;BME280;58640;51.320;9.456;2023-03-31T05:58:33;97814.97;;;9.70;99.82
70982;BME280;58640;51.320;9.456;2023-03-31T06:01:03;97798.25;;;9.68;100.00
70982;BME280;58640;51.320;9.456;2023-03-31T06:03:33;97788.34;;;9.56;100.00
70982;BME280;58640;51.320;9.456;2023-03-31T06:05:59;97782.38;;;9.54;100.00
70982;BME280;58640;51.320;9.456;2023-03-31T06:08:26;97785.22;;;9.72;99.65
70982;BME280;58640;51.320;9.456;2023-03-31T06:10:51;97783.81;;;9.63;99.98
70982;BME280;58640;51.320;9.456;2023-03-31T06:13:16;97785.06;;;9.54;100.00
70982;BME280;58640;51.320;9.456;2023-03-31T06:15:42;97777.22;;;9.59;100.00
70982;BME280;58640;51.320;9.456;2023-03-31T06:18:07;97772.59;;;9.79;98.87
70982;BME280;58640;51.320;9.456;2023-03-31T06:20:35;97763.25;;;9.94;97.76
70982;BME280;58640;51.320;9.456;2023-03-31T06:23:00;97761.63;;;9.87;98.12
70982;BME280;58640;51.320;9.456;2023-03-31T06:25:26;97753.59;;;9.80;98.63
70982;BME280;58640;51.320;9.456;2023-03-31T06:27:51;97761.47;;;9.75;99.52
70982;BME280;58640;51.320;9.456;2023-03-31T06:30:16;97757.78;;;9.63;100.00
70982;BME280;58640;51.320;9.456;2023-03-31T06:32:42;97755.09;;;9.63;100.00
70982;BME280;58640;51.320;9.456;2023-03-31T06:35:07;97755.09;;;9.63;100.00
70982;BME280;58640;51.320;9.456;2023-03-31T06:37:33;97758.44;;;9.59;100.00
70982;BME280;58640;51.320;9.456;2023-03-31T06:39:58;97758.34;;;9.78;100.00
70982;BME280;58640;51.320;9.456;2023-03-31T06:42:23;97752.22;;;9.65;100.00
70982;BME280;58640;51.320;9.456;2023-03-31T06:44:49;97740.19;;;9.74;100.00
70982;BME280;58640;51.320;9.456;2023-03-31T06:47:14;97748.25;;;9.67;100.00
70982;BME280;58640;51.320;9.456;2023-03-31T06:49:40;97745.75;;;9.85;99.82
70982;BME280;58640;51.320;9.456;2023-03-31T06:52:05;97739.34;;;9.80;99.24
70982;BME280;58640;51.320;9.456;2023-03-31T06:54:30;97743.47;;;9.89;98.77
70982;BME280;58640;51.320;9.456;2023-03-31T06:56:56;97732.13;;;9.74;99.42
70982;BME280;58640;51.320;9.456;2023-03-31T06:59:21;97739.28;;;9.93;98.25
70982;BME280;58640;51.320;9.456;2023-03-31T07:01:46;97740.16;;;9.87;98.29
70982;BME280;58640;51.320;9.456;2023-03-31T07:04:12;97732.09;;;9.87;98.89
70982;BME280;58640;51.320;9.456;2023-03-31T07:06:38;97725.94;;;9.73;99.44
70982;BME280;58640;51.320;9.456;2023-03-31T07:09:03;97728.13;;;9.96;99.08
70982;BME280;58640;51.320;9.456;2023-03-31T07:11:28;97718.53;;;9.69;100.00
70982;BME280;58640;51.320;9.456;2023-03-31T07:13:54;97721.66;;;9.53;100.00
70982;BME280;58640;51.320;9.456;2023-03-31T07:16:19;97717.13;;;9.53;100.00
70982;BME280;58640;51.320;9.456;2023-03-31T07:18:45;97713.81;;;9.51;100.00
70982;BME280;58640;51.320;9.456;2023-03-31T07:21:10;97709.50;;;9.57;100.00
70982;BME280;58640;51.320;9.456;2023-03-31T07:23:36;97713.59;;;9.59;100.00
70982;BME280;58640;51.320;9.456;2023-03-31T07:26:02;97708.06;;;9.48;100.00
70982;BME280;58640;51.320;9.456;2023-03-31T07:28:28;97709.25;;;9.65;100.00
70982;BME280;58640;51.320;9.456;2023-03-31T07:30:53;97698.78;;;9.50;100.00
70982;BME280;58640;51.320;9.456;2023-03-31T07:33:19;97698.56;;;9.45;100.00
70982;BME280;58640;51.320;9.456;2023-03-31T07:35:44;97696.34;;;9.23;100.00
70982;BME280;58640;51.320;9.456;2023-03-31T07:38:11;97691.78;;;9.49;100.00
70982;BME280;58640;51.320;9.456;2023-03-31T07:40:37;97678.75;;;9.46;100.00
70982;BME280;58640;51.320;9.456;2023-03-31T07:43:03;97673.13;;;9.61;100.00
70982;BME280;58640;51.320;9.456;2023-03-31T07:45:29;97671.50;;;9.53;100.00
70982;BME280;58640;51.320;9.456;2023-03-31T07:47:55;97676.28;;;9.38;100.00
70982;BME280;58640;51.320;9.456;2023-03-31T07:50:21;97673.59;;;9.38;100.00
70982;BME280;58640;51.320;9.456;2023-03-31T07:52:48;97668.84;;;9.47;100.00
70982;BME280;58640;51.320;9.456;2023-03-31T07:55:14;97671.34;;;9.29;100.00
70982;BME280;58640;51.320;9.456;2023-03-31T07:57:40;97662.31;;;9.23;100.00
70982;BME280;58640;51.320;9.456;2023-03-31T08:00:07;97661.47;;;9.29;100.00
70982;BME280;58640;51.320;9.456;2023-03-31T08:02:34;97664.31;;;9.41;100.00
70982;BME280;58640;51.320;9.456;2023-03-31T08:05:00;97653.81;;;9.39;100.00
70982;BME280;58640;51.320;9.456;2023-03-31T08:07:26;97651.88;;;9.53;100.00
70982;BME280;58640;51.320;9.456;2023-03-31T08:09:55;97654.66;;;9.33;100.00
70982;BME280;58640;51.320;9.456;2023-03-31T08:12:21;97656.09;;;9.36;100.00
70982;BME280;58640;51.320;9.456;2023-03-31T08:14:46;97651.59;;;9.23;100.00
70982;BME280;58640;51.320;9.456;2023-03-31T08:17:12;97645.19;;;9.18;100.00
70982;BME280;58640;51.320;9.456;2023-03-31T08:19:37;97642.53;;;9.11;100.00
70982;BME280;58640;51.320;9.456;2023-03-31T08:22:02;97639.47;;;9.08;100.00
70982;BME280;58640;51.320;9.456;2023-03-31T08:24:28;97632.00;;;9.03;100.00
70982;BME280;58640;51.320;9.456;2023-03-31T08:26:53;97625.00;;;9.09;100.00
70982;BME280;58640;51.320;9.456;2023-03-31T08:29:19;97615.66;;;9.24;100.00
70982;BME280;58640;51.320;9.456;2023-03-31T08:31:44;97616.09;;;9.15;100.00
70982;BME280;58640;51.320;9.456;2023-03-31T08:34:09;97609.34;;;9.06;100.00
70982;BME280;58640;51.320;9.456;2023-03-31T08:36:35;97608.06;;;9.15;100.00
70982;BME280;58640;51.320;9.456;2023-03-31T08:39:00;97602.88;;;9.20;100.00
70982;BME280;58640;51.320;9.456;2023-03-31T08:41:46;97597.47;;;9.33;100.00
70982;BME280;58640;51.320;9.456;2023-03-31T08:44:42;97601.81;;;9.27;100.00
70982;BME280;58640;51.320;9.456;2023-03-31T08:47:17;97596.47;;;9.27;100.00
70982;BME280;58640;51.320;9.456;2023-03-31T08:49:50;97600.06;;;9.59;100.00
70982;BME280;58640;51.320;9.456;2023-03-31T08:52:30;97598.34;;;9.71;100.00
70982;BME280;58640;51.320;9.456;2023-03-31T08:54:58;97595.19;;;9.80;100.00
70982;BME280;58640;51.320;9.456;2023-03-31T08:57:31;97582.41;;;9.76;100.00
70982;BME280;58640;51.320;9.456;2023-03-31T09:00:00;97590.13;;;9.59;100.00
70982;BME280;58640;51.320;9.456;2023-03-31T09:02:42;97592.63;;;9.54;100.00
70982;BME280;58640;51.320;9.456;2023-03-31T09:07:57;97598.97;;;9.66;100.00
70982;BME280;58640;51.320;9.456;2023-03-31T09:10:55;97596.47;;;9.71;100.00
70982;BME280;58640;51.320;9.456;2023-03-31T09:16:25;97577.56;;;9.53;100.00
70982;BME280;58640;51.320;9.456;2023-03-31T09:18:54;97571.25;;;9.41;100.00
70982;BME280;58640;51.320;9.456;2023-03-31T09:21:31;97566.78;;;9.66;100.00
70982;BME280;58640;51.320;9.456;2023-03-31T09:24:14;97570.34;;;9.54;100.00
70982;BME280;58640;51.320;9.456;2023-03-31T09:26:48;97555.88;;;9.55;100.00
70982;BME280;58640;51.320;9.456;2023-03-31T09:29:29;97553.44;;;9.47;100.00
70982;BME280;58640;51.320;9.456;2023-03-31T09:32:13;97555.50;;;9.45;100.00
70982;BME280;58640;51.320;9.456;2023-03-31T09:34:39;97546.53;;;9.64;100.00
70982;BME280;58640;51.320;9.456;2023-03-31T09:37:05;97549.31;;;9.82;100.00
70982;BME280;58640;51.320;9.456;2023-03-31T09:39:30;97552.22;;;9.80;100.00
70982;BME280;58640;51.320;9.456;2023-03-31T09:41:55;97543.81;;;10.08;100.00
70982;BME280;58640;51.320;9.456;2023-03-31T09:44:22;97541.81;;;10.21;98.76
70982;BME280;58640;51.320;9.456;2023-03-31T09:46:50;97542.03;;;10.20;99.54
70982;BME280;58640;51.320;9.456;2023-03-31T09:49:19;97543.78;;;10.57;98.06
70982;BME280;58640;51.320;9.456;2023-03-31T09:51:58;97532.38;;;10.98;96.98
70982;BME280;58640;51.320;9.456;2023-03-31T09:54:45;97537.97;;;10.96;94.92
70982;BME280;58640;51.320;9.456;2023-03-31T09:57:22;97535.13;;;11.27;94.29
70982;BME280;58640;51.320;9.456;2023-03-31T09:59:50;97527.22;;;11.62;91.27
70982;BME280;58640;51.320;9.456;2023-03-31T10:02:36;97531.53;;;11.81;89.28
70982;BME280;58640;51.320;9.456;2023-03-31T10:05:06;97526.47;;;12.14;87.72
70982;BME280;58640;51.320;9.456;2023-03-31T10:07:33;97513.66;;;12.10;85.98
70982;BME280;58640;51.320;9.456;2023-03-31T10:09:59;97515.31;;;12.22;86.26
70982;BME280;58640;51.320;9.456;2023-03-31T10:12:27;97512.53;;;12.52;86.43
70982;BME280;58640;51.320;9.456;2023-03-31T10:17:57;97513.53;;;13.20;81.54
70982;BME280;58640;51.320;9.456;2023-03-31T10:20:33;97509.19;;;13.59;79.90
70982;BME280;58640;51.320;9.456;2023-03-31T10:23:15;97507.00;;;14.00;77.40
70982;BME280;58640;51.320;9.456;2023-03-31T10:25:41;97503.59;;;13.77;77.03
70982;BME280;58640;51.320;9.456;2023-03-31T10:28:10;97495.25;;;13.78;79.17
70982;BME280;58640;51.320;9.456;2023-03-31T10:30:36;97489.66;;;13.68;79.05
70982;BME280;58640;51.320;9.456;2023-03-31T10:33:08;97483.91;;;13.65;77.91
70982;BME280;58640;51.320;9.456;2023-03-31T10:35:36;97478.78;;;13.52;78.69
70982;BME280;58640;51.320;9.456;2023-03-31T10:38:05;97477.72;;;14.14;76.89
70982;BME280;58640;51.320;9.456;2023-03-31T10:40:34;97485.72;;;13.76;77.99
70982;BME280;58640;51.320;9.456;2023-03-31T10:45:53;97475.06;;;13.69;79.70
70982;BME280;58640;51.320;9.456;2023-03-31T10:50:51;97460.53;;;13.87;79.46
70982;BME280;58640;51.320;9.456;2023-03-31T10:53:17;97463.72;;;13.84;78.28
70982;BME280;58640;51.320;9.456;2023-03-31T11:01:31;97456.53;;;13.45;78.62
70982;BME280;58640;51.320;9.456;2023-03-31T11:06:56;97435.38;;;13.70;76.91
70982;BME280;58640;51.320;9.456;2023-03-31T11:09:35;97427.53;;;13.85;76.84
70982;BME280;58640;51.320;9.456;2023-03-31T11:12:22;97415.72;;;14.07;75.86
70982;BME280;58640;51.320;9.456;2023-03-31T11:25:58;97402.69;;;14.04;74.06
70982;BME280;58640;51.320;9.456;2023-03-31T11:28:37;97398.84;;;14.17;72.57
70982;BME280;58640;51.320;9.456;2023-03-31T11:33:59;97404.06;;;14.56;73.86
70982;BME280;58640;51.320;9.456;2023-03-31T11:37:31;97395.69;;;14.58;72.31
70982;BME280;58640;51.320;9.456;2023-03-31T11:42:37;97398.66;;;14.78;72.04
70982;BME280;58640;51.320;9.456;2023-03-31T11:45:23;97389.91;;;14.16;72.24
70982;BME280;58640;51.320;9.456;2023-03-31T11:47:54;97384.59;;;13.88;73.84
70982;BME280;58640;51.320;9.456;2023-03-31T11:50:29;97390.66;;;14.28;72.17
70982;BME280;58640;51.320;9.456;2023-03-31T11:52:58;97387.84;;;14.23;71.13
70982;BME280;58640;51.320;9.456;2023-03-31T11:55:27;97390.31;;;14.25;71.39
70982;BME280;58640;51.320;9.456;2023-03-31T11:58:06;97389.84;;;14.66;70.54
70982;BME280;58640;51.320;9.456;2023-03-31T12:00:42;97390.16;;;14.91;68.35
70982;BME280;58640;51.320;9.456;2023-03-31T12:03:15;97398.22;;;14.86;68.97
70982;BME280;58640;51.320;9.456;2023-03-31T12:05:50;97388.47;;;14.85;66.48
70982;BME280;58640;51.320;9.456;2023-03-31T12:08:29;97383.84;;;14.64;66.94
70982;BME280;58640;51.320;9.456;2023-03-31T12:11:10;97384.09;;;14.62;68.29
70982;BME280;58640;51.320;9.456;2023-03-31T12:16:45;97361.53;;;14.74;68.55
70982;BME280;58640;51.320;9.456;2023-03-31T12:21:40;97363.47;;;14.56;66.23
70982;BME280;58640;51.320;9.456;2023-03-31T12:24:11;97354.91;;;14.43;67.55
70982;BME280;58640;51.320;9.456;2023-03-31T12:29:39;97357.25;;;14.56;67.69
70982;BME280;58640;51.320;9.456;2023-03-31T12:32:18;97357.78;;;14.80;66.75
70982;BME280;58640;51.320;9.456;2023-03-31T12:34:53;97360.88;;;14.88;68.07
70982;BME280;58640;51.320;9.456;2023-03-31T12:42:56;97345.72;;;14.44;69.60
70982;BME280;58640;51.320;9.456;2023-03-31T12:45:31;97339.00;;;14.46;68.52
70982;BME280;58640;51.320;9.456;2023-03-31T12:56:03;97356.50;;;13.40;79.07
70982;BME280;58640;51.320;9.456;2023-03-31T13:01:20;97352.16;;;13.88;75.54
70982;BME280;58640;51.320;9.456;2023-03-31T13:11:49;97349.78;;;14.25;77.25
70982;BME280;58640;51.320;9.456;2023-03-31T13:14:35;97355.03;;;14.53;74.60
70982;BME280;58640;51.320;9.456;2023-03-31T13:17:39;97360.84;;;13.90;76.72
70982;BME280;58640;51.320;9.456;2023-03-31T13:27:56;97356.03;;;12.47;80.68
70982;BME280;58640;51.320;9.456;2023-03-31T13:35:53;97349.59;;;12.87;79.69
70982;BME280;58640;51.320;9.456;2023-03-31T13:38:42;97350.97;;;12.90;81.32
70982;BME280;58640;51.320;9.456;2023-03-31T13:41:33;97361.31;;;12.81;80.79
70982;BME280;58640;51.320;9.456;2023-03-31T13:50:11;97352.22;;;12.71;85.14
70982;BME280;58640;51.320;9.456;2023-03-31T13:52:56;97353.41;;;12.63;84.99
70982;BME280;58640;51.320;9.456;2023-03-31T13:55:41;97347.91;;;12.58;84.17
70982;BME280;58640;51.320;9.456;2023-03-31T13:58:33;97344.09;;;12.82;82.21
70982;BME280;58640;51.320;9.456;2023-03-31T14:01:45;97334.72;;;12.73;83.83
70982;BME280;58640;51.320;9.456;2023-03-31T14:07:01;97329.06;;;13.14;78.51
70982;BME280;58640;51.320;9.456;2023-03-31T14:09:33;97322.50;;;13.10;78.77
70982;BME280;58640;51.320;9.456;2023-03-31T14:12:01;97317.63;;;13.24;76.82
70982;BME280;58640;51.320;9.456;2023-03-31T14:14:42;97312.09;;;13.02;76.05
70982;BME280;58640;51.320;9.456;2023-03-31T14:17:09;97311.72;;;13.10;76.40
70982;BME280;58640;51.320;9.456;2023-03-31T14:22:18;97322.88;;;12.74;76.08
70982;BME280;58640;51.320;9.456;2023-03-31T14:27:38;97334.34;;;12.53;80.69
70982;BME280;58640;51.320;9.456;2023-03-31T14:36:31;97343.34;;;11.96;85.05
70982;BME280;58640;51.320;9.456;2023-03-31T14:39:05;97343.53;;;12.18;83.62
70982;BME280;58640;51.320;9.456;2023-03-31T14:41:32;97344.50;;;12.00;85.13
70982;BME280;58640;51.320;9.456;2023-03-31T14:44:00;97346.47;;;12.05;84.62
70982;BME280;58640;51.320;9.456;2023-03-31T14:46:29;97358.69;;;12.07;84.92
70982;BME280;58640;51.320;9.456;2023-03-31T14:48:57;97349.66;;;11.78;87.43
70982;BME280;58640;51.320;9.456;2023-03-31T14:51:26;97357.59;;;12.08;82.86
70982;BME280;58640;51.320;9.456;2023-03-31T14:53:59;97353.53;;;12.06;83.01
70982;BME280;58640;51.320;9.456;2023-03-31T14:56:37;97349.06;;;11.76;84.30
70982;BME280;58640;51.320;9.456;2023-03-31T14:59:06;97347.31;;;11.82;81.33
70982;BME280;58640;51.320;9.456;2023-03-31T15:01:33;97347.25;;;11.59;80.46
70982;BME280;58640;51.320;9.456;2023-03-31T15:04:11;97356.66;;;11.15;83.37
70982;BME280;58640;51.320;9.456;2023-03-31T15:06:39;97343.97;;;11.34;84.55
70982;BME280;58640;51.320;9.456;2023-03-31T15:09:06;97340.63;;;11.09;86.28
70982;BME280;58640;51.320;9.456;2023-03-31T15:11:34;97340.53;;;11.27;87.17
70982;BME280;58640;51.320;9.456;2023-03-31T15:14:00;97332.53;;;11.50;86.12
70982;BME280;58640;51.320;9.456;2023-03-31T15:16:42;97338.00;;;11.43;87.57
70982;BME280;58640;51.320;9.456;2023-03-31T15:22:13;97338.94;;;11.49;89.92
70982;BME280;58640;51.320;9.456;2023-03-31T15:24:40;97342.94;;;11.58;88.32
70982;BME280;58640;51.320;9.456;2023-03-31T15:27:34;97346.47;;;11.70;87.92
70982;BME280;58640;51.320;9.456;2023-03-31T15:30:04;97352.00;;;11.75;86.47
70982;BME280;58640;51.320;9.456;2023-03-31T15:32:37;97344.75;;;11.75;87.00
70982;BME280;58640;51.320;9.456;2023-03-31T15:35:04;97342.13;;;11.57;87.86
70982;BME280;58640;51.320;9.456;2023-03-31T15:37:43;97344.03;;;11.68;87.65
70982;BME280;58640;51.320;9.456;2023-03-31T15:40:20;97342.81;;;11.53;89.08
70982;BME280;58640;51.320;9.456;2023-03-31T15:42:48;97348.31;;;11.46;88.80
70982;BME280;58640;51.320;9.456;2023-03-31T15:47:51;97351.09;;;11.40;89.37
70982;BME280;58640;51.320;9.456;2023-03-31T15:50:19;97350.91;;;11.53;88.79
70982;BME280;58640;51.320;9.456;2023-03-31T15:52:49;97343.66;;;11.53;87.59